Time;durP1;ratioP1;P1;durP2;ratioP2;P2;SDS_P1;SDS_P2;PMS_P1;PMS_P2;Temp;Humidity;BMP_temperature;BMP_pressure;BME280_temperature;BME280_humidity;BME280_pressure;Samples;Min_cycle;Max_cycle;Signal;HPM_P1;HPM_P2
2022/07/12 00:03:58;;;;;;;3.40;3.10;;;;;;;14.21;80.13;101303.69;10407167;28;20053;-83
2022/07/12 00:09:02;;;;;;;3.65;3.35;;;;;;;14.16;79.85;101309.47;10414251;28;20532;-81
2022/07/12 00:14:05;;;;;;;4.43;3.72;;;;;;;14.13;79.47;101309.72;10412062;28;20057;-84
2022/07/12 00:19:10;;;;;;;3.55;2.80;;;;;;;13.97;79.97;101311.94;10411181;28;20056;-83
2022/07/12 00:24:12;;;;;;;3.55;3.28;;;;;;;13.87;80.24;101309.09;10389456;28;20045;-84
2022/07/12 00:29:15;;;;;;;4.25;3.85;;;;;;;13.91;80.52;101316.00;10410316;28;20057;-83
2022/07/12 00:34:19;;;;;;;5.45;4.45;;;;;;;13.83;80.19;101304.94;10407219;28;21188;-81
2022/07/12 00:39:22;;;;;;;5.40;4.93;;;;;;;13.58;81.00;101308.75;10415304;28;20049;-84
2022/07/12 00:44:26;;;;;;;6.88;4.82;;;;;;;13.57;81.10;101310.56;10401659;28;20049;-84
2022/07/12 00:49:31;;;;;;;4.75;4.35;;;;;;;13.60;81.04;101314.88;10405283;28;20442;-83
2022/07/12 00:54:34;;;;;;;3.88;3.58;;;;;;;13.61;81.02;101313.91;10411449;28;20100;-83
2022/07/12 00:59:37;;;;;;;3.58;3.25;;;;;;;13.51;80.16;101307.50;10394039;28;20064;-84
2022/07/12 01:04:44;;;;;;;5.18;3.25;;;;;;;13.53;80.26;101308.25;10402903;28;20108;-84
2022/07/12 01:09:48;;;;;;;3.17;2.88;;;;;;;13.46;79.81;101302.47;10396155;28;20045;-82
2022/07/12 01:14:51;;;;;;;3.22;2.90;;;;;;;13.48;79.42;101300.50;10409189;28;20503;-82
2022/07/12 01:19:58;;;;;;;4.35;3.80;;;;;;;13.55;79.66;101293.66;10398030;28;20049;-83
2022/07/12 01:25:03;;;;;;;3.85;3.40;;;;;;;13.51;79.22;101286.78;10387268;28;20045;-83
2022/07/12 01:30:07;;;;;;;4.18;3.78;;;;;;;13.51;78.75;101275.13;10403956;28;20069;-84
2022/07/12 01:35:11;;;;;;;5.72;5.13;;;;;;;13.30;79.35;101280.34;10410042;28;20111;-83
2022/07/12 01:40:16;;;;;;;5.70;4.80;;;;;;;13.23;80.29;101271.88;10404910;28;20510;-84
2022/07/12 01:45:19;;;;;;;5.45;4.80;;;;;;;13.10;80.54;101279.19;10398004;28;20053;-82
2022/07/12 01:50:22;;;;;;;7.13;5.60;;;;;;;13.08;81.03;101271.22;10386474;28;20049;-83
2022/07/12 01:55:27;;;;;;;5.97;4.90;;;;;;;12.93;81.40;101273.28;10397067;28;20175;-84
2022/07/12 02:00:31;;;;;;;5.00;4.55;;;;;;;13.03;81.31;101273.44;10378263;28;20049;-83
2022/07/12 02:05:35;;;;;;;6.57;4.28;;;;;;;13.04;80.81;101273.28;10386222;28;20371;-82
2022/07/12 02:10:40;;;;;;;3.97;3.67;;;;;;;12.89;80.65;101274.50;10403558;28;20057;-82
2022/07/12 02:15:43;;;;;;;4.22;3.63;;;;;;;12.60;81.18;101269.47;10399382;28;20061;-83
2022/07/12 02:20:45;;;;;;;4.43;4.00;;;;;;;12.35;81.95;101281.25;10409017;28;20135;-83
2022/07/12 02:25:50;;;;;;;4.97;3.33;;;;;;;12.39;80.94;101279.16;10420163;28;20053;-81
2022/07/12 02:30:53;;;;;;;4.18;3.75;;;;;;;12.46;80.58;101280.44;10420239;28;20163;-82
2022/07/12 02:35:56;;;;;;;5.88;3.90;;;;;;;12.51;80.50;101283.66;10385109;28;20076;-83
2022/07/12 02:41:00;;;;;;;5.10;3.78;;;;;;;12.58;79.96;101297.50;10384908;28;20056;-83
2022/07/12 02:46:07;;;;;;;5.78;3.90;;;;;;;12.46;80.26;101295.75;10427930;28;20040;-81
2022/07/12 02:51:10;;;;;;;4.57;4.18;;;;;;;12.49;80.30;101307.16;10429178;28;20440;-83
2022/07/12 02:56:15;;;;;;;4.35;3.95;;;;;;;12.51;80.67;101299.81;10413092;28;20115;-82
2022/07/12 03:01:17;;;;;;;3.22;3.03;;;;;;;12.56;80.18;101305.72;10390495;28;20064;-82
2022/07/12 03:06:20;;;;;;;3.05;2.78;;;;;;;12.56;79.92;101305.72;10394546;28;20064;-83
2022/07/12 03:11:24;;;;;;;;;;;;;;;12.59;79.70;101320.81;10397158;28;20049;-83
2022/07/12 03:16:27;;;;;;;5.07;4.63;;;;;;;12.60;79.43;101323.38;10397532;28;19925;-83
2022/07/12 03:21:30;;;;;;;3.65;2.72;;;;;;;12.67;79.10;101318.41;10401342;28;20045;-83
2022/07/12 03:26:34;;;;;;;2.60;2.40;;;;;;;12.62;78.03;101315.19;10402117;28;20532;-82
2022/07/12 03:31:37;;;;;;;2.78;2.58;;;;;;;12.67;77.99;101323.81;10400745;28;20078;-82
2022/07/12 03:36:41;;;;;;;3.08;2.78;;;;;;;12.70;77.48;101325.38;10398267;28;20049;-83
2022/07/12 03:41:45;;;;;;;4.38;3.20;;;;;;;12.82;77.21;101327.16;10401677;28;20607;-82
2022/07/12 03:46:48;;;;;;;6.68;4.90;;;;;;;12.94;77.18;101331.59;10398432;28;20053;-83
2022/07/12 03:51:51;;;;;;;8.60;5.72;;;;;;;13.11;77.19;101329.47;10402595;28;20052;-83
2022/07/12 04:02:15;;;;;;;7.15;4.53;;;;;;;13.34;77.27;101342.03;10395278;28;21216;-81
2022/07/12 04:07:19;;;;;;;5.82;5.07;;;;;;;13.40;77.26;101340.75;10408022;28;20054;-83
2022/07/12 04:12:23;;;;;;;1.88;1.55;;;;;;;13.64;77.44;101346.91;10406672;28;20122;-82
2022/07/12 04:17:26;;;;;;;7.63;3.20;;;;;;;13.56;76.79;101353.91;10377942;28;20092;-82
2022/07/12 04:22:29;;;;;;;5.75;1.98;;;;;;;13.96;77.21;101356.13;10378746;28;20057;-83
2022/07/12 04:27:33;;;;;;;9.88;3.78;;;;;;;14.33;76.39;101351.31;10379971;28;20080;-82
2022/07/12 04:32:36;;;;;;;4.55;2.63;;;;;;;14.55;75.36;101358.56;10379452;28;20061;-83
2022/07/12 04:37:39;;;;;;;4.00;3.63;;;;;;;14.78;74.57;101365.63;10380761;28;20518;-84
2022/07/12 04:42:43;;;;;;;8.45;5.10;;;;;;;14.86;74.25;101369.53;10391212;28;20257;-82
2022/07/12 04:47:46;;;;;;;9.50;4.03;;;;;;;14.99;74.01;101362.94;10387379;28;20688;-83
2022/07/12 04:52:49;;;;;;;5.30;2.85;;;;;;;14.95;73.83;101375.03;10398020;28;20408;-81
2022/07/12 04:57:53;;;;;;;2.90;2.53;;;;;;;14.82;73.72;101372.47;10394204;28;20053;-82
2022/07/12 05:02:56;;;;;;;4.88;2.80;;;;;;;15.04;73.93;101373.38;10400876;28;20530;-82
2022/07/12 05:07:59;;;;;;;4.50;3.15;;;;;;;15.30;73.76;101367.59;10393798;28;20054;-82
2022/07/12 05:13:03;;;;;;;6.22;3.60;;;;;;;15.44;73.19;101376.31;10390643;28;20596;-83
2022/07/12 05:18:06;;;;;;;4.53;4.10;;;;;;;15.44;72.73;101388.97;10398401;28;20080;-83
2022/07/12 05:23:09;;;;;;;6.53;4.20;;;;;;;15.62;72.76;101398.22;10400493;28;20079;-84
2022/07/12 05:28:14;;;;;;;8.63;3.42;;;;;;;15.62;72.47;101400.91;10411079;28;20053;-84
2022/07/12 05:33:17;;;;;;;8.02;3.35;;;;;;;15.67;72.40;101405.94;10390865;28;20056;-83
2022/07/12 05:38:20;;;;;;;11.10;6.28;;;;;;;15.81;72.51;101411.00;10407119;28;20056;-84
2022/07/12 05:43:24;;;;;;;8.30;5.53;;;;;;;15.87;73.32;101404.19;10403829;28;20088;-84
2022/07/12 05:48:27;;;;;;;11.63;6.35;;;;;;;16.05;72.72;101402.59;10403037;28;20523;-84
2022/07/12 05:53:30;;;;;;;12.00;6.15;;;;;;;15.96;72.46;101405.25;10396371;28;20045;-82
2022/07/12 05:58:34;;;;;;;14.75;6.78;;;;;;;16.07;73.02;101392.47;10395513;28;20046;-84
2022/07/12 06:03:42;;;;;;;11.38;7.00;;;;;;;16.28;72.64;101388.88;10388883;28;20041;-82
2022/07/12 06:08:45;;;;;;;9.88;6.88;;;;;;;16.37;72.81;101385.31;10382362;28;20055;-85
2022/07/12 06:13:50;;;;;;;8.75;7.90;;;;;;;16.37;73.34;101382.63;10402912;28;20056;-83
2022/07/12 06:18:53;;;;;;;13.15;8.13;;;;;;;16.63;73.89;101391.13;10406651;28;21199;-83
2022/07/12 06:23:56;;;;;;;10.70;7.50;;;;;;;16.90;72.95;101384.16;10390228;28;20132;-84
2022/07/12 06:29:00;;;;;;;10.13;6.60;;;;;;;16.98;71.85;101396.03;10392987;28;20176;-82
2022/07/12 06:34:03;;;;;;;8.50;7.50;;;;;;;17.04;72.03;101400.03;10378475;28;20659;-83
2022/07/12 06:39:06;;;;;;;7.60;6.20;;;;;;;17.38;71.24;101407.75;10376518;28;20068;-82
2022/07/12 06:44:10;;;;;;;8.82;5.50;;;;;;;17.34;70.55;101395.50;10378121;28;20049;-81
2022/07/12 06:49:13;;;;;;;6.45;5.10;;;;;;;17.96;66.50;101401.34;10375081;28;20049;-82
2022/07/12 06:54:16;;;;;;;5.05;4.55;;;;;;;18.60;65.37;101394.22;10382041;28;20056;-82
2022/07/12 06:59:20;;;;;;;4.63;4.13;;;;;;;19.31;63.23;101383.41;10408069;28;20058;-81
2022/07/12 07:04:23;;;;;;;5.55;3.42;;;;;;;19.66;62.43;101398.88;10395167;28;21310;-81
2022/07/12 07:09:26;;;;;;;3.35;2.90;;;;;;;19.19;61.08;101393.66;10390801;28;20045;-81
2022/07/12 07:14:30;;;;;;;4.22;3.30;;;;;;;19.17;60.94;101395.72;10400962;28;20092;-80
2022/07/12 07:19:33;;;;;;;3.50;3.30;;;;;;;18.71;62.53;101394.00;10394575;28;20045;-82
2022/07/12 07:24:36;;;;;;;3.20;2.90;;;;;;;19.66;62.57;101414.34;10397344;28;20088;-82
2022/07/12 07:35:00;;;;;;;2.47;2.30;;;;;;;24.18;49.61;101403.25;10399798;28;20057;-80
2022/07/12 07:40:04;;;;;;;2.75;2.55;;;;;;;28.02;42.45;101394.88;10398796;28;20287;-81
2022/07/12 07:45:10;;;;;;;3.13;2.92;;;;;;;25.84;42.71;101405.09;10416188;28;20060;-78
2022/07/12 07:50:20;;;;;;;2.65;2.45;;;;;;;24.28;45.56;101416.69;10435456;28;20083;-81
2022/07/12 07:55:23;;;;;;;3.42;2.60;;;;;;;21.01;54.43;101410.91;10416199;28;20049;-79
2022/07/12 08:00:27;;;;;;;2.60;2.40;;;;;;;21.05;54.36;101406.81;10399638;28;20619;-81
2022/07/12 08:05:30;;;;;;;2.60;2.35;;;;;;;24.39;46.16;101401.63;10388551;28;20038;-80
2022/07/12 08:10:33;;;;;;;6.57;2.40;;;;;;;24.12;46.56;101400.41;10397418;28;20162;-79
2022/07/12 08:15:37;;;;;;;2.60;2.38;;;;;;;22.33;50.83;101393.34;10438522;28;20052;-79
2022/07/12 08:20:40;;;;;;;3.03;2.40;;;;;;;22.36;51.45;101389.41;10393238;28;20049;-79
2022/07/12 08:25:49;;;;;;;2.95;2.10;;;;;;;21.17;52.46;101377.28;10418324;28;20056;-77
2022/07/12 08:30:53;;;;;;;1.77;1.67;;;;;;;20.63;53.83;101385.03;10410426;28;20060;-80
2022/07/12 08:35:56;;;;;;;2.70;1.73;;;;;;;21.02;53.22;101377.94;10392012;28;20045;-80
2022/07/12 08:40:59;;;;;;;1.55;1.45;;;;;;;21.59;52.25;101377.09;10392237;28;20045;-81
2022/07/12 08:46:07;;;;;;;3.95;1.70;;;;;;;21.61;51.63;101375.06;10386264;28;20041;-79
2022/07/12 08:51:11;;;;;;;3.30;2.50;;;;;;;21.37;52.25;101384.13;10402213;28;20670;-81
2022/07/12 08:56:32;;;;;;;2.50;2.17;;;;;;;23.05;50.40;101393.13;10402928;28;20055;-79
2022/07/12 09:01:45;;;;;;;4.00;2.20;;;;;;;23.07;48.50;101390.22;10402578;28;20057;-81
2022/07/12 09:06:49;;;;;;;2.00;1.90;;;;;;;23.32;49.08;101379.94;10404272;28;20052;-79
2022/07/12 09:11:52;;;;;;;2.30;2.10;;;;;;;24.08;46.45;101391.72;10411415;28;20097;-79
2022/07/12 09:17:09;;;;;;;1.90;1.70;;;;;;;23.79;48.69;101387.06;10405586;28;20059;-79
2022/07/12 09:22:16;;;;;;;1.92;1.65;;;;;;;24.83;47.11;101387.81;10416950;28;20524;-80
2022/07/12 09:27:25;;;;;;;3.92;1.60;;;;;;;25.60;45.87;101378.84;10409783;28;20533;-80
2022/07/12 09:37:51;;;;;;;2.33;1.70;;;;;;;24.38;46.13;101395.31;10371445;28;20080;-79
2022/07/12 09:42:55;;;;;;;1.92;1.60;;;;;;;24.15;47.01;101380.81;10388110;28;21750;-80
2022/07/12 09:48:00;;;;;;;1.60;1.23;;;;;;;23.98;46.93;101380.16;10405090;28;20099;-80
2022/07/12 09:53:05;;;;;;;1.15;1.15;;;;;;;23.30;48.26;101382.84;10408007;28;20060;-80
2022/07/12 09:58:09;;;;;;;1.92;1.20;;;;;;;24.30;46.27;101379.78;10413648;28;21226;-79
2022/07/12 10:03:14;;;;;;;1.73;1.50;;;;;;;25.60;44.59;101369.75;10402182;28;20499;-80
2022/07/12 10:08:18;;;;;;;1.50;1.40;;;;;;;24.98;45.41;101363.03;10387803;28;20053;-80
2022/07/12 10:13:21;;;;;;;1.08;1.05;;;;;;;24.82;46.60;101355.03;10389847;28;20095;-80
2022/07/12 10:18:26;;;;;;;1.60;1.48;;;;;;;25.62;44.98;101351.97;10402340;28;20526;-80
2022/07/12 10:23:35;;;;;;;1.10;1.00;;;;;;;26.97;42.54;101357.94;10405577;28;20091;-79
2022/07/12 10:28:56;;;;;;;2.25;1.30;;;;;;;26.54;41.35;101362.91;10391215;28;20053;-80
2022/07/12 10:34:21;;;;;;;1.23;1.00;;;;;;;26.38;41.20;101355.84;10397932;28;20053;-79
2022/07/12 10:39:26;;;;;;;1.30;1.20;;;;;;;26.10;43.05;101339.38;10396445;28;20045;-80
2022/07/12 10:44:35;;;;;;;0.88;0.88;;;;;;;26.67;41.28;101335.38;10409481;28;20051;-80
2022/07/12 10:49:46;;;;;;;2.78;1.10;;;;;;;27.41;40.95;101328.09;10404437;28;20048;-79
2022/07/12 10:55:17;;;;;;;3.75;0.60;;;;;;;26.52;39.02;101319.88;10405764;28;20122;-80
2022/07/12 11:00:22;;;;;;;1.33;0.68;;;;;;;26.70;39.16;101332.22;10396553;28;20048;-80
2022/07/12 11:05:27;;;;;;;0.70;0.70;;;;;;;27.48;38.20;101329.78;10401484;28;20050;-80
2022/07/12 11:10:30;;;;;;;0.95;0.70;;;;;;;27.89;37.98;101320.31;10408839;28;20072;-83
2022/07/12 11:15:33;;;;;;;1.80;0.90;;;;;;;27.67;37.53;101316.13;10400131;28;20103;-80
2022/07/12 11:20:38;;;;;;;0.60;0.60;;;;;;;28.11;37.34;101306.25;10401967;28;20126;-80
2022/07/12 11:25:40;;;;;;;0.77;0.77;;;;;;;28.13;38.21;101306.91;10407536;28;20092;-80
2022/07/12 11:30:49;;;;;;;0.90;0.90;;;;;;;29.32;36.18;101291.47;10405143;28;20041;-80
2022/07/12 11:35:56;;;;;;;0.73;0.70;;;;;;;28.80;36.79;101290.81;10386723;28;20572;-80
2022/07/12 11:41:00;;;;;;;0.80;0.80;;;;;;;29.33;35.32;101290.41;10401607;28;20056;-80
2022/07/12 11:46:04;;;;;;;0.80;0.60;;;;;;;29.99;34.68;101275.84;10401523;28;20052;-80
2022/07/12 11:51:12;;;;;;;1.95;0.80;;;;;;;30.07;34.35;101276.63;10393965;28;20077;-80
2022/07/12 11:56:14;;;;;;;2.10;0.77;;;;;;;30.34;35.05;101282.69;10402611;28;20115;-80
2022/07/12 12:01:17;;;;;;;0.70;0.70;;;;;;;29.08;35.86;101273.81;10401960;28;20502;-80
2022/07/12 12:06:21;;;;;;;2.03;1.00;;;;;;;30.34;35.33;101271.59;10408289;28;20075;-81
2022/07/12 12:11:29;;;;;;;0.77;0.60;;;;;;;31.15;33.74;101275.63;10396449;28;20049;-80
2022/07/12 12:16:34;;;;;;;0.73;0.73;;;;;;;31.62;33.72;101270.09;10402629;28;20063;-80
2022/07/12 12:21:38;;;;;;;0.68;0.68;;;;;;;31.68;33.29;101268.31;10401602;28;20628;-80
2022/07/12 12:26:41;;;;;;;1.10;0.77;;;;;;;30.99;33.42;101262.47;10411802;28;20041;-80
2022/07/12 12:31:57;;;;;;;0.77;0.77;;;;;;;31.49;32.69;101262.03;10403479;28;20044;-80
2022/07/12 12:37:06;;;;;;;1.27;0.90;;;;;;;31.31;33.48;101254.69;10400696;28;20574;-80
2022/07/12 12:42:12;;;;;;;1.58;0.70;;;;;;;31.24;33.01;101243.72;10401222;28;20653;-79
2022/07/12 12:47:34;;;;;;;0.82;0.82;;;;;;;30.54;34.76;101241.63;10405464;28;20571;-81
2022/07/12 12:52:48;;;;;;;1.70;0.70;;;;;;;30.41;35.73;101250.16;10413817;28;20086;-80
2022/07/12 12:57:52;;;;;;;0.70;0.70;;;;;;;30.21;33.27;101228.28;10406534;28;20094;-80
2022/07/12 13:02:57;;;;;;;2.75;0.70;;;;;;;30.49;34.93;101227.63;10403307;28;20106;-80
2022/07/12 13:08:02;;;;;;;0.50;0.50;;;;;;;31.08;33.47;101238.88;10403264;28;20155;-80
2022/07/12 13:13:06;;;;;;;1.98;0.80;;;;;;;30.86;32.05;101230.28;10377613;28;20042;-80
2022/07/12 13:18:09;;;;;;;0.70;0.70;;;;;;;30.15;33.22;101234.78;10390122;28;20080;-80
2022/07/12 13:23:13;;;;;;;1.05;0.88;;;;;;;31.72;32.80;101231.47;10410550;28;20052;-80
2022/07/12 13:28:16;;;;;;;1.13;0.70;;;;;;;32.34;31.93;101230.78;10405658;28;20053;-79
2022/07/12 13:33:19;;;;;;;0.75;0.68;;;;;;;31.47;30.32;101228.97;10402400;28;20056;-80
2022/07/12 13:38:25;;;;;;;0.50;0.50;;;;;;;31.38;29.73;101230.44;10402877;28;20065;-78
2022/07/12 13:43:28;;;;;;;1.02;0.60;;;;;;;31.87;30.89;101224.53;10377811;28;20099;-79
2022/07/12 13:48:31;;;;;;;1.08;0.60;;;;;;;32.36;30.64;101224.97;10391258;28;20671;-78
2022/07/12 13:53:35;;;;;;;0.50;0.50;;;;;;;31.71;31.12;101226.19;10406088;28;20133;-78
2022/07/12 13:58:38;;;;;;;0.50;0.50;;;;;;;31.81;32.32;101225.53;10398451;28;20067;-79
2022/07/12 14:03:41;;;;;;;1.10;0.50;;;;;;;31.81;31.96;101229.16;10403184;28;20071;-79
2022/07/12 14:08:46;;;;;;;2.72;0.65;;;;;;;31.54;31.75;101228.81;10399161;28;20087;-79
2022/07/12 14:13:55;;;;;;;0.50;0.50;;;;;;;30.66;32.38;101214.84;10398354;28;20045;-79
2022/07/12 14:18:58;;;;;;;0.55;0.55;;;;;;;30.63;33.61;101206.94;10399795;28;20040;-79
2022/07/12 14:24:03;;;;;;;0.57;0.57;;;;;;;30.16;33.41;101214.28;10416328;28;20052;-79
2022/07/12 14:29:05;;;;;;;0.75;0.60;;;;;;;30.53;33.59;101208.63;10402351;28;20064;-79
2022/07/12 14:34:08;;;;;;;1.23;0.70;;;;;;;30.59;33.00;101208.50;10402795;28;20291;-79
2022/07/12 14:39:12;;;;;;;1.02;0.80;;;;;;;29.55;33.80;101213.31;10424541;28;20077;-79
2022/07/12 14:44:15;;;;;;;6.38;1.02;;;;;;;30.21;33.61;101203.34;10416249;28;20523;-79
2022/07/12 14:49:19;;;;;;;1.70;0.40;;;;;;;29.89;33.59;101199.94;10416586;28;20045;-79
2022/07/12 14:54:24;;;;;;;0.80;0.55;;;;;;;29.93;34.01;101198.41;10418357;28;20041;-79
2022/07/12 14:59:27;;;;;;;0.68;0.43;;;;;;;29.98;33.74;101204.09;10420432;28;20190;-79
2022/07/12 15:04:30;;;;;;;0.55;0.55;;;;;;;29.94;34.06;101208.38;10417549;28;20103;-79
2022/07/12 15:09:34;;;;;;;0.73;0.73;;;;;;;29.93;32.67;101202.00;10416376;28;20139;-79
2022/07/12 15:14:37;;;;;;;1.88;0.70;;;;;;;30.35;33.28;101201.22;10414511;28;20056;-79
2022/07/12 15:19:40;;;;;;;1.48;0.52;;;;;;;30.62;32.38;101196.94;10410907;28;20107;-79
2022/07/12 15:24:44;;;;;;;3.03;0.50;;;;;;;30.86;31.78;101185.91;10410114;28;20598;-79
2022/07/12 15:29:47;;;;;;;1.75;0.60;;;;;;;30.98;30.87;101177.59;10411980;28;20084;-79
2022/07/12 15:34:50;;;;;;;0.63;0.57;;;;;;;31.92;31.58;101169.94;10424004;28;20041;-79
2022/07/12 15:39:54;;;;;;;1.02;0.75;;;;;;;32.54;30.83;101168.28;10408412;28;20046;-79
2022/07/12 15:44:57;;;;;;;1.30;0.60;;;;;;;32.68;30.29;101166.88;10418316;28;20041;-79
2022/07/12 15:50:00;;;;;;;2.00;0.75;;;;;;;31.90;30.89;101166.56;10404451;28;20276;-82
2022/07/12 15:55:08;;;;;;;0.98;0.98;;;;;;;31.03;31.46;101164.69;10402203;28;20049;-78
2022/07/12 16:00:14;;;;;;;1.48;1.08;;;;;;;31.10;31.77;101161.75;10401199;28;20102;-78
2022/07/12 16:05:17;;;;;;;1.48;1.33;;;;;;;30.73;33.03;101150.09;10415030;28;20056;-79
2022/07/12 16:10:23;;;;;;;12.23;11.02;;;;;;;30.02;33.20;101150.72;10411325;28;20100;-78
2022/07/12 16:15:26;;;;;;;1.02;0.85;;;;;;;29.52;32.84;101147.38;10403759;28;20056;-79
2022/07/12 16:20:29;;;;;;;5.40;1.20;;;;;;;28.92;34.07;101135.03;10409560;28;20068;-79
2022/07/12 16:25:34;;;;;;;1.55;1.45;;;;;;;28.07;35.15;101133.81;10398843;28;20167;-78
2022/07/12 16:30:38;;;;;;;1.55;1.17;;;;;;;28.12;35.37;101137.59;10409983;28;20111;-78
2022/07/12 16:35:40;;;;;;;0.82;0.70;;;;;;;28.23;36.02;101130.50;10401972;28;20503;-78
2022/07/12 16:40:45;;;;;;;0.65;0.60;;;;;;;28.37;35.77;101123.81;10393876;28;20053;-79
2022/07/12 16:45:47;;;;;;;5.13;1.00;;;;;;;28.23;36.30;101128.59;10395587;28;20113;-79
2022/07/12 16:51:21;;;;;;;6.60;5.78;;;;;;;27.77;37.11;101117.81;10395502;28;20560;-78
2022/07/12 16:56:17;;;;;;;28.98;11.35;;;;;;;28.04;38.19;101115.78;10401338;28;20049;-78
2022/07/12 17:01:20;;;;;;;24.55;11.02;;;;;;;28.35;37.29;101114.91;10394318;28;20518;-78
2022/07/12 17:06:25;;;;;;;50.22;19.13;;;;;;;28.47;38.34;101107.56;10406607;28;20069;-79
2022/07/12 17:11:29;;;;;;;9.20;3.95;;;;;;;28.27;38.40;101104.13;10416456;28;20800;-78
2022/07/12 17:16:33;;;;;;;1.95;0.80;;;;;;;27.97;38.72;101104.75;10393456;28;20114;-78
2022/07/12 17:21:36;;;;;;;1.92;0.70;;;;;;;27.55;41.42;101106.25;10404515;28;20162;-79
2022/07/12 17:26:40;;;;;;;4.35;0.90;;;;;;;27.21;42.17;101093.63;10411418;28;20057;-78
2022/07/12 17:31:43;;;;;;;0.60;0.60;;;;;;;27.19;42.97;101091.09;10380999;28;20668;-79
2022/07/12 17:36:46;;;;;;;1.63;1.38;;;;;;;27.14;43.72;101097.28;10387380;28;20170;-79
2022/07/12 17:41:57;;;;;;;2.58;1.00;;;;;;;28.44;41.67;101085.94;10412216;28;20057;-79
2022/07/12 17:47:00;;;;;;;1.70;0.70;;;;;;;28.63;39.93;101089.63;10404737;28;20103;-79
2022/07/12 17:52:03;;;;;;;1.65;0.70;;;;;;;31.45;38.57;101084.00;10400483;28;20050;-79
2022/07/12 17:57:08;;;;;;;0.50;0.50;;;;;;;32.59;33.71;101079.41;10402400;28;20068;-80
2022/07/12 18:02:10;;;;;;;0.73;0.70;;;;;;;30.81;36.37;101088.72;10403575;28;20045;-79
2022/07/12 18:07:13;;;;;;;3.15;0.95;;;;;;;29.31;39.34;101085.03;10403624;28;20049;-79
2022/07/12 18:22:59;;;;;;;2.28;1.30;;;;;;;27.31;40.94;101097.63;10378921;28;20049;-79
2022/07/12 18:28:04;;;;;;;1.42;1.23;;;;;;;26.66;42.01;101105.84;10383155;28;20138;-79
2022/07/12 18:33:07;;;;;;;2.83;1.13;;;;;;;26.37;43.01;101104.38;10394874;28;20492;-79
2022/07/12 18:38:11;;;;;;;2.03;1.00;;;;;;;26.10;44.23;101106.22;10404339;28;20052;-79
2022/07/12 18:43:15;;;;;;;1.10;0.98;;;;;;;25.79;44.16;101104.91;10396580;28;20045;-79
2022/07/12 18:48:18;;;;;;;0.68;0.68;;;;;;;25.25;44.60;101105.72;10398399;28;20074;-79
2022/07/12 18:53:20;;;;;;;0.85;0.77;;;;;;;25.16;45.29;101098.72;10404615;28;20048;-79
2022/07/12 18:58:25;;;;;;;1.30;0.80;;;;;;;24.95;45.88;101091.38;10403017;28;20541;-78
2022/07/12 19:03:28;;;;;;;1.45;0.93;;;;;;;24.53;45.82;101099.53;10399306;28;20180;-79
2022/07/12 19:08:31;;;;;;;3.65;2.15;;;;;;;24.24;46.38;101094.19;10408786;28;21179;-78
2022/07/12 19:13:35;;;;;;;1.00;0.60;;;;;;;23.97;46.58;101095.81;10407114;28;20052;-78
2022/07/12 19:18:38;;;;;;;2.00;0.80;;;;;;;23.71;46.91;101104.59;10403292;28;20522;-79
2022/07/12 19:23:41;;;;;;;0.75;0.75;;;;;;;23.60;46.81;101104.06;10397839;28;20045;-79
2022/07/12 19:28:45;;;;;;;2.10;1.30;;;;;;;23.42;46.49;101107.25;10402603;28;20683;-78
2022/07/12 19:33:48;;;;;;;0.60;0.60;;;;;;;23.20;47.09;101100.84;10404031;28;20106;-79
2022/07/12 19:38:51;;;;;;;1.45;0.63;;;;;;;23.17;46.86;101105.84;10398937;28;20170;-79
2022/07/12 19:43:55;;;;;;;2.85;1.00;;;;;;;23.14;47.24;101109.78;10408693;28;20052;-78
2022/07/12 19:48:58;;;;;;;1.13;0.90;;;;;;;23.12;47.05;101100.94;10401725;28;20073;-79
2022/07/12 19:54:02;;;;;;;1.48;0.68;;;;;;;22.98;46.76;101107.22;10404163;28;20099;-79
2022/07/12 19:59:06;;;;;;;3.65;0.80;;;;;;;22.91;46.41;101098.06;10403620;28;20037;-78
2022/07/12 20:04:09;;;;;;;0.80;0.80;;;;;;;22.84;46.17;101117.13;10407306;28;20514;-77
2022/07/12 20:09:12;;;;;;;0.95;0.80;;;;;;;22.58;46.39;101116.75;10396853;28;20048;-77
2022/07/12 20:14:16;;;;;;;3.03;1.45;;;;;;;22.65;47.24;101115.78;10401552;28;20061;-79
2022/07/12 20:19:19;;;;;;;1.48;1.08;;;;;;;22.63;49.08;101122.50;10405718;28;20052;-78
2022/07/12 20:24:22;;;;;;;2.33;1.30;;;;;;;22.50;49.70;101118.50;10401797;28;20130;-78
2022/07/12 20:29:26;;;;;;;2.13;1.60;;;;;;;22.39;50.00;101107.97;10404154;28;20049;-78
2022/07/12 20:34:30;;;;;;;1.45;1.35;;;;;;;22.26;49.32;101099.53;10383112;28;20049;-78
2022/07/12 20:39:34;;;;;;;1.98;1.50;;;;;;;22.25;49.82;101103.31;10386932;28;20102;-77
2022/07/12 20:44:39;;;;;;;2.70;1.30;;;;;;;22.22;49.56;101109.16;10402212;28;20049;-79
2022/07/12 20:49:42;;;;;;;3.75;1.48;;;;;;;22.12;49.48;101112.13;10397617;28;20041;-78
2022/07/12 20:54:45;;;;;;;1.65;1.55;;;;;;;21.95;49.85;101103.19;10396412;28;20103;-80
2022/07/12 20:59:49;;;;;;;2.17;1.20;;;;;;;21.95;49.04;101102.34;10409074;28;20049;-77
2022/07/12 21:04:52;;;;;;;2.78;1.27;;;;;;;21.88;49.78;101097.59;10391609;28;20154;-78
2022/07/12 21:09:56;;;;;;;5.72;1.63;;;;;;;21.85;50.21;101092.47;10406359;28;20656;-78
2022/07/12 21:15:01;;;;;;;1.27;1.17;;;;;;;21.72;51.59;101099.56;10412060;28;20476;-77
2022/07/12 21:20:05;;;;;;;1.35;1.25;;;;;;;21.66;52.27;101096.50;10409095;28;20103;-77
2022/07/12 21:25:08;;;;;;;2.50;1.38;;;;;;;21.70;52.59;101098.91;10411871;28;20055;-77
2022/07/12 21:30:12;;;;;;;2.90;1.40;;;;;;;21.76;52.56;101101.78;10407106;28;20053;-78
2022/07/12 21:35:15;;;;;;;2.85;1.30;;;;;;;21.68;52.83;101099.06;10415180;28;20053;-77
2022/07/12 21:40:18;;;;;;;1.85;1.42;;;;;;;21.65;52.45;101107.63;10391184;28;20053;-77
2022/07/12 21:45:22;;;;;;;2.55;1.40;;;;;;;21.70;52.72;101091.53;10392695;28;20119;-77
2022/07/12 21:50:25;;;;;;;3.55;1.45;;;;;;;21.73;52.84;101093.91;10404531;28;20042;-78
2022/07/12 21:55:28;;;;;;;5.07;1.58;;;;;;;21.66;53.31;101084.72;10400853;28;20164;-78
2022/07/12 22:00:32;;;;;;;1.60;1.17;;;;;;;21.60;53.59;101085.44;10388859;28;20084;-78
2022/07/12 22:05:35;;;;;;;1.63;1.40;;;;;;;21.49;54.06;101086.69;10407779;28;20151;-77
2022/07/12 22:10:39;;;;;;;1.52;1.40;;;;;;;21.42;54.20;101069.34;10409325;28;20056;-77
2022/07/12 22:15:43;;;;;;;1.85;1.50;;;;;;;21.31;54.73;101058.78;10411502;28;20079;-77
2022/07/12 22:20:46;;;;;;;2.58;1.52;;;;;;;21.17;55.24;101063.13;10399056;28;20132;-78
2022/07/12 22:25:49;;;;;;;3.25;1.27;;;;;;;21.04;55.99;101058.25;10400836;28;20045;-77
2022/07/12 22:30:54;;;;;;;1.83;1.58;;;;;;;21.02;56.22;101054.78;10408934;28;20056;-77
2022/07/12 22:35:57;;;;;;;2.42;1.42;;;;;;;20.90;56.63;101051.59;10420369;28;20061;-77
2022/07/12 22:40:59;;;;;;;2.20;1.77;;;;;;;20.66;57.04;101048.94;10405843;28;20511;-77
2022/07/12 22:46:05;;;;;;;1.98;1.88;;;;;;;20.51;57.66;101036.00;10387589;28;20060;-78
2022/07/12 22:56:29;;;;;;;4.15;1.52;;;;;;;20.48;58.24;101030.06;10403234;28;20060;-78
2022/07/12 23:01:34;;;;;;;2.53;1.63;;;;;;;20.49;58.20;101032.63;10404285;28;21401;-77
2022/07/12 23:06:39;;;;;;;2.92;1.83;;;;;;;20.54;58.08;101034.81;10417396;28;20183;-78
2022/07/12 23:11:42;;;;;;;3.25;1.98;;;;;;;20.60;57.79;101031.41;10408519;28;20045;-78
2022/07/12 23:16:46;;;;;;;1.77;1.58;;;;;;;20.54;57.90;101029.34;10404908;28;20049;-78
2022/07/12 23:21:49;;;;;;;2.53;2.20;;;;;;;20.53;58.12;101017.59;10404076;28;20045;-78
2022/07/12 23:26:52;;;;;;;2.80;1.95;;;;;;;20.51;58.13;101021.50;10413614;28;20053;-77
2022/07/12 23:31:56;;;;;;;2.45;2.00;;;;;;;20.49;58.40;101029.03;10421727;28;20049;-78
2022/07/12 23:36:59;;;;;;;2.38;1.70;;;;;;;20.59;58.42;101028.84;10399456;28;20056;-77
2022/07/12 23:42:02;;;;;;;2.33;2.10;;;;;;;20.58;57.98;101018.94;10410271;28;20046;-78
2022/07/12 23:47:07;;;;;;;2.63;2.00;;;;;;;20.51;58.28;101030.53;10391970;28;20119;-77
2022/07/12 23:52:11;;;;;;;1.67;1.48;;;;;;;20.50;58.44;101034.31;10406461;28;20514;-78